sensor_id;sensor_type;location;lat;lon;timestamp;pressure;altitude;pressure_sealevel;temperature;humidity
24336;BME280;33098;52.400;16.880;2023-06-22T00:02:19;100969.28;;;22.36;91.87
24336;BME280;33098;52.400;16.880;2023-06-22T00:04:45;100968.65;;;22.33;92.04
24336;BME280;33098;52.400;16.880;2023-06-22T00:07:12;100971.02;;;22.30;92.30
24336;BME280;33098;52.400;16.880;2023-06-22T00:09:38;100973.69;;;22.31;92.51
24336;BME280;33098;52.400;16.880;2023-06-22T00:12:05;100975.21;;;22.34;92.88
24336;BME280;33098;52.400;16.880;2023-06-22T00:14:32;100972.02;;;22.34;92.85
24336;BME280;33098;52.400;16.880;2023-06-22T00:16:58;100976.46;;;22.36;93.03
24336;BME280;33098;52.400;16.880;2023-06-22T00:19:25;100991.38;;;22.37;93.07
24336;BME280;33098;52.400;16.880;2023-06-22T00:21:51;100997.46;;;22.36;93.15
24336;BME280;33098;52.400;16.880;2023-06-22T00:24:21;100998.52;;;22.35;93.11
24336;BME280;33098;52.400;16.880;2023-06-22T00:26:48;100999.35;;;22.23;92.91
24336;BME280;33098;52.400;16.880;2023-06-22T00:29:16;101004.59;;;22.13;93.23
24336;BME280;33098;52.400;16.880;2023-06-22T00:31:43;101005.08;;;22.10;93.51
24336;BME280;33098;52.400;16.880;2023-06-22T00:34:09;101007.41;;;22.07;93.67
24336;BME280;33098;52.400;16.880;2023-06-22T00:36:36;101002.90;;;22.02;93.71
24336;BME280;33098;52.400;16.880;2023-06-22T00:39:03;101004.84;;;21.94;93.76
24336;BME280;33098;52.400;16.880;2023-06-22T00:41:30;101006.23;;;21.89;94.14
24336;BME280;33098;52.400;16.880;2023-06-22T00:43:57;101007.75;;;21.89;94.36
24336;BME280;33098;52.400;16.880;2023-06-22T00:46:24;101005.92;;;21.86;94.59
24336;BME280;33098;52.400;16.880;2023-06-22T00:48:51;101005.42;;;21.84;94.80
24336;BME280;33098;52.400;16.880;2023-06-22T00:51:18;101008.20;;;21.83;95.06
24336;BME280;33098;52.400;16.880;2023-06-22T00:53:51;101011.13;;;21.83;95.38
24336;BME280;33098;52.400;16.880;2023-06-22T00:56:20;101015.45;;;21.85;95.53
24336;BME280;33098;52.400;16.880;2023-06-22T00:58:51;101017.80;;;21.83;95.61
24336;BME280;33098;52.400;16.880;2023-06-22T01:01:19;101013.65;;;21.82;95.69
24336;BME280;33098;52.400;16.880;2023-06-22T01:03:49;101015.52;;;21.80;95.99
24336;BME280;33098;52.400;16.880;2023-06-22T01:06:22;101014.61;;;21.80;96.25
24336;BME280;33098;52.400;16.880;2023-06-22T01:09:03;101019.34;;;21.81;96.41
24336;BME280;33098;52.400;16.880;2023-06-22T01:11:37;101013.21;;;21.81;96.55
24336;BME280;33098;52.400;16.880;2023-06-22T01:14:21;101016.74;;;21.80;96.71
24336;BME280;33098;52.400;16.880;2023-06-22T01:16:51;101021.17;;;21.78;96.67
24336;BME280;33098;52.400;16.880;2023-06-22T01:22:10;101015.63;;;21.79;97.02
24336;BME280;33098;52.400;16.880;2023-06-22T01:24:51;101017.93;;;21.75;96.93
24336;BME280;33098;52.400;16.880;2023-06-22T01:30:16;101017.48;;;21.66;97.03
24336;BME280;33098;52.400;16.880;2023-06-22T01:32:43;101021.37;;;21.62;97.15
24336;BME280;33098;52.400;16.880;2023-06-22T01:35:10;101023.29;;;21.60;97.38
24336;BME280;33098;52.400;16.880;2023-06-22T01:37:38;101019.77;;;21.59;97.54
24336;BME280;33098;52.400;16.880;2023-06-22T01:40:06;101026.83;;;21.57;97.71
24336;BME280;33098;52.400;16.880;2023-06-22T01:42:35;101028.00;;;21.54;97.93
24336;BME280;33098;52.400;16.880;2023-06-22T01:45:03;101031.94;;;21.55;97.92
24336;BME280;33098;52.400;16.880;2023-06-22T01:47:31;101034.30;;;21.51;97.91
24336;BME280;33098;52.400;16.880;2023-06-22T01:49:58;101043.00;;;21.48;97.99
24336;BME280;33098;52.400;16.880;2023-06-22T01:52:25;101040.61;;;21.48;98.28
24336;BME280;33098;52.400;16.880;2023-06-22T01:54:51;101039.64;;;21.47;98.33
24336;BME280;33098;52.400;16.880;2023-06-22T01:57:19;101047.19;;;21.45;98.27
24336;BME280;33098;52.400;16.880;2023-06-22T01:59:53;101050.30;;;21.44;98.37
24336;BME280;33098;52.400;16.880;2023-06-22T02:02:27;101046.11;;;21.43;98.46
24336;BME280;33098;52.400;16.880;2023-06-22T02:04:59;101045.16;;;21.37;98.47
24336;BME280;33098;52.400;16.880;2023-06-22T02:07:33;101044.58;;;21.29;98.44
24336;BME280;33098;52.400;16.880;2023-06-22T02:10:03;101045.55;;;21.26;98.59
24336;BME280;33098;52.400;16.880;2023-06-22T02:12:32;101047.80;;;21.22;98.82
24336;BME280;33098;52.400;16.880;2023-06-22T02:15:00;101050.86;;;21.19;99.03
24336;BME280;33098;52.400;16.880;2023-06-22T02:17:27;101059.07;;;21.16;99.29
24336;BME280;33098;52.400;16.880;2023-06-22T02:19:54;101056.27;;;21.17;99.59
24336;BME280;33098;52.400;16.880;2023-06-22T02:22:21;101061.76;;;21.20;99.66
24336;BME280;33098;52.400;16.880;2023-06-22T02:24:47;101067.47;;;21.22;99.76
24336;BME280;33098;52.400;16.880;2023-06-22T02:27:14;101070.09;;;21.18;99.66
24336;BME280;33098;52.400;16.880;2023-06-22T02:29:40;101076.16;;;21.14;99.64
24336;BME280;33098;52.400;16.880;2023-06-22T02:32:07;101077.34;;;21.06;99.49
24336;BME280;33098;52.400;16.880;2023-06-22T02:34:33;101083.67;;;21.01;99.71
24336;BME280;33098;52.400;16.880;2023-06-22T02:37:00;101082.41;;;21.00;99.90
24336;BME280;33098;52.400;16.880;2023-06-22T02:39:28;101082.11;;;20.96;99.99
24336;BME280;33098;52.400;16.880;2023-06-22T02:41:55;101083.61;;;20.94;100.00
24336;BME280;33098;52.400;16.880;2023-06-22T02:44:22;101081.81;;;20.94;100.00
24336;BME280;33098;52.400;16.880;2023-06-22T02:46:49;101088.39;;;20.92;100.00
24336;BME280;33098;52.400;16.880;2023-06-22T02:49:16;101092.20;;;20.93;100.00
24336;BME280;33098;52.400;16.880;2023-06-22T02:51:47;101085.88;;;20.95;100.00
24336;BME280;33098;52.400;16.880;2023-06-22T02:54:15;101087.61;;;20.98;100.00
24336;BME280;33098;52.400;16.880;2023-06-22T02:56:43;101086.31;;;21.01;100.00
24336;BME280;33098;52.400;16.880;2023-06-22T02:59:12;101088.55;;;21.04;100.00
24336;BME280;33098;52.400;16.880;2023-06-22T03:01:39;101085.09;;;21.06;99.99
24336;BME280;33098;52.400;16.880;2023-06-22T03:04:19;101081.19;;;21.07;99.56
24336;BME280;33098;52.400;16.880;2023-06-22T03:06:46;101085.67;;;21.04;98.71
24336;BME280;33098;52.400;16.880;2023-06-22T03:09:17;101090.91;;;21.03;98.21
24336;BME280;33098;52.400;16.880;2023-06-22T03:11:43;101094.73;;;21.02;97.66
24336;BME280;33098;52.400;16.880;2023-06-22T03:14:10;101091.73;;;21.05;97.19
24336;BME280;33098;52.400;16.880;2023-06-22T03:16:37;101094.19;;;21.07;96.30
24336;BME280;33098;52.400;16.880;2023-06-22T03:19:03;101096.93;;;21.05;95.58
24336;BME280;33098;52.400;16.880;2023-06-22T03:21:29;101096.63;;;21.05;94.93
24336;BME280;33098;52.400;16.880;2023-06-22T03:23:56;101093.49;;;21.02;94.05
24336;BME280;33098;52.400;16.880;2023-06-22T03:26:23;101094.89;;;20.99;93.60
24336;BME280;33098;52.400;16.880;2023-06-22T03:28:53;101096.46;;;21.01;93.20
24336;BME280;33098;52.400;16.880;2023-06-22T03:31:19;101102.48;;;21.02;92.83
24336;BME280;33098;52.400;16.880;2023-06-22T03:33:49;101107.90;;;21.02;92.27
24336;BME280;33098;52.400;16.880;2023-06-22T03:36:17;101109.59;;;21.03;91.75
24336;BME280;33098;52.400;16.880;2023-06-22T03:38:48;101101.10;;;21.02;91.52
24336;BME280;33098;52.400;16.880;2023-06-22T03:41:15;101099.33;;;20.99;91.00
24336;BME280;33098;52.400;16.880;2023-06-22T03:43:42;101105.21;;;20.94;90.66
24336;BME280;33098;52.400;16.880;2023-06-22T03:46:09;101105.25;;;20.92;90.65
24336;BME280;33098;52.400;16.880;2023-06-22T03:48:35;101109.15;;;20.95;90.53
24336;BME280;33098;52.400;16.880;2023-06-22T03:51:02;101105.77;;;20.96;90.47
24336;BME280;33098;52.400;16.880;2023-06-22T03:53:29;101105.23;;;20.97;90.25
24336;BME280;33098;52.400;16.880;2023-06-22T03:55:56;101101.82;;;20.97;90.23
24336;BME280;33098;52.400;16.880;2023-06-22T03:58:23;101102.84;;;20.98;89.82
24336;BME280;33098;52.400;16.880;2023-06-22T04:00:51;101110.08;;;21.01;89.83
24336;BME280;33098;52.400;16.880;2023-06-22T04:03:18;101112.78;;;20.97;89.56
24336;BME280;33098;52.400;16.880;2023-06-22T04:05:45;101120.16;;;20.99;89.46
24336;BME280;33098;52.400;16.880;2023-06-22T04:08:13;101132.76;;;20.98;89.14
24336;BME280;33098;52.400;16.880;2023-06-22T04:10:40;101134.00;;;21.00;89.09
24336;BME280;33098;52.400;16.880;2023-06-22T04:13:06;101132.46;;;21.00;88.77
24336;BME280;33098;52.400;16.880;2023-06-22T04:15:33;101142.69;;;21.01;88.57
24336;BME280;33098;52.400;16.880;2023-06-22T04:18:00;101143.29;;;21.04;88.54
24336;BME280;33098;52.400;16.880;2023-06-22T04:20:26;101144.04;;;21.04;88.09
24336;BME280;33098;52.400;16.880;2023-06-22T04:22:53;101147.14;;;21.05;88.05
24336;BME280;33098;52.400;16.880;2023-06-22T04:25:20;101148.05;;;21.06;87.81
24336;BME280;33098;52.400;16.880;2023-06-22T04:27:47;101142.40;;;21.11;87.80
24336;BME280;33098;52.400;16.880;2023-06-22T04:30:14;101146.66;;;21.13;87.63
24336;BME280;33098;52.400;16.880;2023-06-22T04:32:43;101146.73;;;21.12;87.34
24336;BME280;33098;52.400;16.880;2023-06-22T04:35:11;101152.27;;;21.11;86.98
24336;BME280;33098;52.400;16.880;2023-06-22T04:37:38;101154.40;;;21.10;86.73
24336;BME280;33098;52.400;16.880;2023-06-22T04:40:06;101156.27;;;21.09;86.52
24336;BME280;33098;52.400;16.880;2023-06-22T04:42:34;101155.89;;;21.11;86.54
24336;BME280;33098;52.400;16.880;2023-06-22T04:45:03;101155.29;;;21.13;86.20
24336;BME280;33098;52.400;16.880;2023-06-22T04:47:31;101150.91;;;21.15;86.10
24336;BME280;33098;52.400;16.880;2023-06-22T04:49:57;101151.41;;;21.19;85.84
24336;BME280;33098;52.400;16.880;2023-06-22T04:52:23;101152.92;;;21.21;85.65
24336;BME280;33098;52.400;16.880;2023-06-22T04:54:51;101150.95;;;21.24;85.57
24336;BME280;33098;52.400;16.880;2023-06-22T04:57:23;101148.39;;;21.29;85.24
24336;BME280;33098;52.400;16.880;2023-06-22T04:59:59;101148.05;;;21.31;85.09
24336;BME280;33098;52.400;16.880;2023-06-22T05:02:39;101147.29;;;21.36;84.87
24336;BME280;33098;52.400;16.880;2023-06-22T05:05:06;101150.93;;;21.40;84.68
24336;BME280;33098;52.400;16.880;2023-06-22T05:07:36;101149.47;;;21.44;84.46
24336;BME280;33098;52.400;16.880;2023-06-22T05:10:03;101152.77;;;21.45;84.23
24336;BME280;33098;52.400;16.880;2023-06-22T05:12:30;101149.88;;;21.48;83.90
24336;BME280;33098;52.400;16.880;2023-06-22T05:14:57;101151.09;;;21.50;83.68
24336;BME280;33098;52.400;16.880;2023-06-22T05:17:23;101151.49;;;21.51;83.35
24336;BME280;33098;52.400;16.880;2023-06-22T05:19:50;101149.36;;;21.53;83.04
24336;BME280;33098;52.400;16.880;2023-06-22T05:22:17;101145.73;;;21.53;82.76
24336;BME280;33098;52.400;16.880;2023-06-22T05:24:43;101144.70;;;21.54;82.45
24336;BME280;33098;52.400;16.880;2023-06-22T05:27:10;101145.31;;;21.55;82.20
24336;BME280;33098;52.400;16.880;2023-06-22T05:29:37;101147.59;;;21.56;81.98
24336;BME280;33098;52.400;16.880;2023-06-22T05:32:04;101150.48;;;21.56;81.64
24336;BME280;33098;52.400;16.880;2023-06-22T05:34:31;101147.42;;;21.52;81.02
24336;BME280;33098;52.400;16.880;2023-06-22T05:36:58;101142.34;;;21.54;80.72
24336;BME280;33098;52.400;16.880;2023-06-22T05:39:25;101142.48;;;21.58;80.43
24336;BME280;33098;52.400;16.880;2023-06-22T05:41:52;101144.63;;;21.56;79.76
24336;BME280;33098;52.400;16.880;2023-06-22T05:44:19;101148.56;;;21.55;79.61
24336;BME280;33098;52.400;16.880;2023-06-22T05:46:45;101149.87;;;21.54;79.25
24336;BME280;33098;52.400;16.880;2023-06-22T05:49:15;101150.27;;;21.58;78.99
24336;BME280;33098;52.400;16.880;2023-06-22T05:51:42;101150.38;;;21.60;78.83
24336;BME280;33098;52.400;16.880;2023-06-22T05:54:09;101156.53;;;21.61;78.53
24336;BME280;33098;52.400;16.880;2023-06-22T05:56:36;101159.41;;;21.61;78.55
24336;BME280;33098;52.400;16.880;2023-06-22T05:59:03;101157.81;;;21.63;78.46
24336;BME280;33098;52.400;16.880;2023-06-22T06:01:30;101162.16;;;21.67;78.51
24336;BME280;33098;52.400;16.880;2023-06-22T06:04:04;101160.95;;;21.73;78.42
24336;BME280;33098;52.400;16.880;2023-06-22T06:06:31;101163.17;;;21.81;78.35
24336;BME280;33098;52.400;16.880;2023-06-22T06:08:57;101160.94;;;21.86;78.19
24336;BME280;33098;52.400;16.880;2023-06-22T06:11:25;101153.80;;;21.92;78.16
24336;BME280;33098;52.400;16.880;2023-06-22T06:13:52;101154.49;;;21.95;77.99
24336;BME280;33098;52.400;16.880;2023-06-22T06:16:18;101156.64;;;21.98;77.70
24336;BME280;33098;52.400;16.880;2023-06-22T06:18:45;101158.19;;;22.03;77.79
24336;BME280;33098;52.400;16.880;2023-06-22T06:21:11;101164.40;;;22.09;77.53
24336;BME280;33098;52.400;16.880;2023-06-22T06:23:38;101170.28;;;22.16;77.26
24336;BME280;33098;52.400;16.880;2023-06-22T06:26:04;101164.54;;;22.19;76.75
24336;BME280;33098;52.400;16.880;2023-06-22T06:28:33;101159.99;;;22.19;76.45
24336;BME280;33098;52.400;16.880;2023-06-22T06:31:00;101151.68;;;22.19;75.95
24336;BME280;33098;52.400;16.880;2023-06-22T06:33:26;101150.81;;;22.19;75.58
24336;BME280;33098;52.400;16.880;2023-06-22T06:35:53;101156.44;;;22.23;75.64
24336;BME280;33098;52.400;16.880;2023-06-22T06:38:22;101162.45;;;22.26;75.26
24336;BME280;33098;52.400;16.880;2023-06-22T06:40:49;101168.06;;;22.27;75.05
24336;BME280;33098;52.400;16.880;2023-06-22T06:43:16;101168.09;;;22.30;74.84
24336;BME280;33098;52.400;16.880;2023-06-22T06:45:42;101165.45;;;22.34;74.63
24336;BME280;33098;52.400;16.880;2023-06-22T06:48:09;101166.88;;;22.41;74.47
24336;BME280;33098;52.400;16.880;2023-06-22T06:50:35;101173.86;;;22.46;74.49
24336;BME280;33098;52.400;16.880;2023-06-22T06:53:02;101173.89;;;22.52;74.27
24336;BME280;33098;52.400;16.880;2023-06-22T06:55:28;101180.02;;;22.57;74.09
24336;BME280;33098;52.400;16.880;2023-06-22T06:57:59;101185.01;;;22.61;73.94
24336;BME280;33098;52.400;16.880;2023-06-22T07:00:26;101187.74;;;22.62;73.37
24336;BME280;33098;52.400;16.880;2023-06-22T07:02:52;101189.11;;;22.64;73.01
24336;BME280;33098;52.400;16.880;2023-06-22T07:05:19;101192.68;;;22.67;72.50
24336;BME280;33098;52.400;16.880;2023-06-22T07:07:45;101187.95;;;22.67;71.94
24336;BME280;33098;52.400;16.880;2023-06-22T07:10:12;101187.50;;;22.70;71.86
24336;BME280;33098;52.400;16.880;2023-06-22T07:12:39;101189.54;;;22.75;71.46
24336;BME280;33098;52.400;16.880;2023-06-22T07:15:07;101183.70;;;22.78;71.17
24336;BME280;33098;52.400;16.880;2023-06-22T07:17:34;101181.55;;;22.81;70.77
24336;BME280;33098;52.400;16.880;2023-06-22T07:20:02;101182.67;;;22.83;70.42
24336;BME280;33098;52.400;16.880;2023-06-22T07:22:34;101180.41;;;22.86;69.90
24336;BME280;33098;52.400;16.880;2023-06-22T07:25:01;101183.59;;;22.86;69.61
24336;BME280;33098;52.400;16.880;2023-06-22T07:27:30;101184.02;;;22.87;69.34
24336;BME280;33098;52.400;16.880;2023-06-22T07:30:02;101181.63;;;22.89;69.06
24336;BME280;33098;52.400;16.880;2023-06-22T07:32:29;101178.06;;;22.93;69.10
24336;BME280;33098;52.400;16.880;2023-06-22T07:34:55;101176.98;;;22.96;69.16
24336;BME280;33098;52.400;16.880;2023-06-22T07:37:22;101170.04;;;22.98;68.67
24336;BME280;33098;52.400;16.880;2023-06-22T07:39:49;101172.45;;;23.00;68.50
24336;BME280;33098;52.400;16.880;2023-06-22T07:42:20;101176.17;;;23.04;68.29
24336;BME280;33098;52.400;16.880;2023-06-22T07:44:46;101172.30;;;23.07;67.93
24336;BME280;33098;52.400;16.880;2023-06-22T07:47:12;101171.23;;;23.08;67.60
24336;BME280;33098;52.400;16.880;2023-06-22T07:49:39;101170.48;;;23.11;67.48
24336;BME280;33098;52.400;16.880;2023-06-22T07:52:06;101166.39;;;23.15;67.22
24336;BME280;33098;52.400;16.880;2023-06-22T07:54:33;101169.88;;;23.19;66.96
24336;BME280;33098;52.400;16.880;2023-06-22T07:56:59;101169.93;;;23.21;66.34
24336;BME280;33098;52.400;16.880;2023-06-22T07:59:26;101174.20;;;23.23;65.97
24336;BME280;33098;52.400;16.880;2023-06-22T08:01:53;101178.27;;;23.27;65.56
24336;BME280;33098;52.400;16.880;2023-06-22T08:04:19;101176.68;;;23.30;65.61
24336;BME280;33098;52.400;16.880;2023-06-22T08:06:46;101178.16;;;23.33;65.34
24336;BME280;33098;52.400;16.880;2023-06-22T08:09:12;101182.17;;;23.38;65.10
24336;BME280;33098;52.400;16.880;2023-06-22T08:11:39;101184.23;;;23.41;64.79
24336;BME280;33098;52.400;16.880;2023-06-22T08:14:06;101181.89;;;23.46;64.09
24336;BME280;33098;52.400;16.880;2023-06-22T08:16:32;101173.84;;;23.49;63.35
24336;BME280;33098;52.400;16.880;2023-06-22T08:18:58;101177.75;;;23.50;62.80
24336;BME280;33098;52.400;16.880;2023-06-22T08:21:25;101175.46;;;23.52;62.36
24336;BME280;33098;52.400;16.880;2023-06-22T08:23:51;101177.75;;;23.56;61.81
24336;BME280;33098;52.400;16.880;2023-06-22T08:26:18;101178.63;;;23.61;61.62
24336;BME280;33098;52.400;16.880;2023-06-22T08:28:44;101177.88;;;23.66;61.16
24336;BME280;33098;52.400;16.880;2023-06-22T08:31:11;101169.11;;;23.71;60.65
24336;BME280;33098;52.400;16.880;2023-06-22T08:33:38;101174.42;;;23.74;60.67
24336;BME280;33098;52.400;16.880;2023-06-22T08:36:05;101176.55;;;23.78;60.55
24336;BME280;33098;52.400;16.880;2023-06-22T08:38:33;101174.50;;;23.78;60.06
24336;BME280;33098;52.400;16.880;2023-06-22T08:41:00;101178.98;;;23.83;60.05
24336;BME280;33098;52.400;16.880;2023-06-22T08:43:27;101178.14;;;23.88;59.77
24336;BME280;33098;52.400;16.880;2023-06-22T08:45:53;101182.98;;;23.93;59.30
24336;BME280;33098;52.400;16.880;2023-06-22T08:48:20;101178.52;;;23.97;59.21
24336;BME280;33098;52.400;16.880;2023-06-22T08:50:46;101173.80;;;24.02;59.05
24336;BME280;33098;52.400;16.880;2023-06-22T08:53:13;101171.50;;;24.03;58.58
24336;BME280;33098;52.400;16.880;2023-06-22T08:55:40;101167.64;;;24.05;58.64
24336;BME280;33098;52.400;16.880;2023-06-22T08:58:06;101164.30;;;24.08;58.42
24336;BME280;33098;52.400;16.880;2023-06-22T09:00:33;101156.65;;;24.11;57.87
24336;BME280;33098;52.400;16.880;2023-06-22T09:03:01;101149.17;;;24.19;57.51
24336;BME280;33098;52.400;16.880;2023-06-22T09:05:28;101145.11;;;24.27;57.00
24336;BME280;33098;52.400;16.880;2023-06-22T09:07:56;101145.95;;;24.33;56.72
24336;BME280;33098;52.400;16.880;2023-06-22T09:10:23;101138.65;;;24.39;56.71
24336;BME280;33098;52.400;16.880;2023-06-22T09:12:49;101141.80;;;24.43;56.31
24336;BME280;33098;52.400;16.880;2023-06-22T09:15:16;101130.78;;;24.47;55.90
24336;BME280;33098;52.400;16.880;2023-06-22T09:17:42;101128.81;;;24.49;55.76
24336;BME280;33098;52.400;16.880;2023-06-22T09:20:10;101132.20;;;24.56;55.67
24336;BME280;33098;52.400;16.880;2023-06-22T09:22:37;101138.21;;;24.62;55.30
24336;BME280;33098;52.400;16.880;2023-06-22T09:25:04;101139.14;;;24.70;54.95
24336;BME280;33098;52.400;16.880;2023-06-22T09:27:31;101136.02;;;24.78;54.68
24336;BME280;33098;52.400;16.880;2023-06-22T09:29:57;101130.37;;;24.86;54.41
24336;BME280;33098;52.400;16.880;2023-06-22T09:32:25;101125.98;;;24.93;54.35
24336;BME280;33098;52.400;16.880;2023-06-22T09:34:52;101125.17;;;24.98;53.88
24336;BME280;33098;52.400;16.880;2023-06-22T09:37:19;101123.70;;;25.04;53.85
24336;BME280;33098;52.400;16.880;2023-06-22T09:39:46;101123.30;;;25.07;53.22
24336;BME280;33098;52.400;16.880;2023-06-22T09:42:13;101118.59;;;25.12;53.42
24336;BME280;33098;52.400;16.880;2023-06-22T09:44:39;101115.27;;;25.18;53.34
24336;BME280;33098;52.400;16.880;2023-06-22T09:47:06;101119.27;;;25.22;53.10
24336;BME280;33098;52.400;16.880;2023-06-22T09:49:33;101116.50;;;25.28;52.92
24336;BME280;33098;52.400;16.880;2023-06-22T09:51:59;101113.45;;;25.37;52.52
24336;BME280;33098;52.400;16.880;2023-06-22T09:54:26;101111.40;;;25.45;52.12
24336;BME280;33098;52.400;16.880;2023-06-22T09:56:52;101107.82;;;25.50;51.98
24336;BME280;33098;52.400;16.880;2023-06-22T09:59:19;101110.98;;;25.56;51.70
24336;BME280;33098;52.400;16.880;2023-06-22T10:01:45;101110.20;;;25.61;51.36
24336;BME280;33098;52.400;16.880;2023-06-22T10:04:12;101109.56;;;25.68;51.02
24336;BME280;33098;52.400;16.880;2023-06-22T10:06:38;101107.48;;;25.76;50.79
24336;BME280;33098;52.400;16.880;2023-06-22T10:09:07;101112.23;;;25.83;50.59
24336;BME280;33098;52.400;16.880;2023-06-22T10:11:34;101115.91;;;25.89;50.29
24336;BME280;33098;52.400;16.880;2023-06-22T10:14:01;101112.02;;;25.98;50.18
24336;BME280;33098;52.400;16.880;2023-06-22T10:16:31;101110.60;;;26.12;49.99
24336;BME280;33098;52.400;16.880;2023-06-22T10:18:58;101109.02;;;26.26;49.89
24336;BME280;33098;52.400;16.880;2023-06-22T10:21:25;101106.51;;;26.38;49.60
24336;BME280;33098;52.400;16.880;2023-06-22T10:23:53;101105.45;;;26.51;49.82
24336;BME280;33098;52.400;16.880;2023-06-22T10:26:19;101097.30;;;26.63;49.26
24336;BME280;33098;52.400;16.880;2023-06-22T10:28:46;101093.68;;;26.76;48.98
24336;BME280;33098;52.400;16.880;2023-06-22T10:31:12;101100.44;;;26.88;48.37
24336;BME280;33098;52.400;16.880;2023-06-22T10:33:39;101103.10;;;27.00;48.57
24336;BME280;33098;52.400;16.880;2023-06-22T10:36:07;101109.33;;;27.12;48.08
24336;BME280;33098;52.400;16.880;2023-06-22T10:38:34;101113.89;;;27.21;47.92
24336;BME280;33098;52.400;16.880;2023-06-22T10:41:00;101112.09;;;27.30;47.40
24336;BME280;33098;52.400;16.880;2023-06-22T10:43:28;101106.77;;;27.45;47.53
24336;BME280;33098;52.400;16.880;2023-06-22T10:45:54;101100.42;;;27.60;47.52
24336;BME280;33098;52.400;16.880;2023-06-22T10:48:20;101103.35;;;27.70;46.84
24336;BME280;33098;52.400;16.880;2023-06-22T10:50:47;101104.98;;;27.81;46.83
24336;BME280;33098;52.400;16.880;2023-06-22T10:53:13;101105.69;;;27.94;46.60
24336;BME280;33098;52.400;16.880;2023-06-22T10:55:40;101102.40;;;28.07;45.32
24336;BME280;33098;52.400;16.880;2023-06-22T10:58:06;101098.47;;;28.20;45.84
24336;BME280;33098;52.400;16.880;2023-06-22T11:00:33;101099.63;;;28.32;45.65
24336;BME280;33098;52.400;16.880;2023-06-22T11:02:59;101103.20;;;28.39;45.16
24336;BME280;33098;52.400;16.880;2023-06-22T11:05:26;101101.41;;;28.47;44.53
24336;BME280;33098;52.400;16.880;2023-06-22T11:07:52;101097.23;;;28.62;44.70
24336;BME280;33098;52.400;16.880;2023-06-22T11:10:19;101096.39;;;28.80;44.59
24336;BME280;33098;52.400;16.880;2023-06-22T11:12:45;101093.09;;;28.97;44.34
24336;BME280;33098;52.400;16.880;2023-06-22T11:15:12;101084.53;;;29.16;44.03
24336;BME280;33098;52.400;16.880;2023-06-22T11:17:38;101082.17;;;29.31;43.07
24336;BME280;33098;52.400;16.880;2023-06-22T11:20:05;101073.54;;;29.43;42.68
24336;BME280;33098;52.400;16.880;2023-06-22T11:22:40;101065.03;;;29.55;42.72
24336;BME280;33098;52.400;16.880;2023-06-22T11:25:07;101062.27;;;29.71;42.81
24336;BME280;33098;52.400;16.880;2023-06-22T11:27:34;101060.68;;;29.89;42.93
24336;BME280;33098;52.400;16.880;2023-06-22T11:30:01;101065.39;;;30.03;42.66
24336;BME280;33098;52.400;16.880;2023-06-22T11:32:27;101065.44;;;30.19;42.46
24336;BME280;33098;52.400;16.880;2023-06-22T11:34:54;101065.97;;;30.23;42.16
24336;BME280;33098;52.400;16.880;2023-06-22T11:37:20;101060.23;;;30.29;41.41
24336;BME280;33098;52.400;16.880;2023-06-22T11:39:47;101063.27;;;30.33;41.08
24336;BME280;33098;52.400;16.880;2023-06-22T11:42:13;101063.16;;;30.38;41.18
24336;BME280;33098;52.400;16.880;2023-06-22T11:44:41;101063.21;;;30.47;40.26
24336;BME280;33098;52.400;16.880;2023-06-22T11:47:08;101059.52;;;30.61;40.22
24336;BME280;33098;52.400;16.880;2023-06-22T11:49:34;101053.52;;;30.77;40.78
24336;BME280;33098;52.400;16.880;2023-06-22T11:52:01;101046.07;;;30.99;40.77
24336;BME280;33098;52.400;16.880;2023-06-22T11:54:27;101044.01;;;31.18;40.86
24336;BME280;33098;52.400;16.880;2023-06-22T11:56:54;101047.21;;;31.36;40.60
24336;BME280;33098;52.400;16.880;2023-06-22T11:59:21;101043.19;;;31.56;40.49
24336;BME280;33098;52.400;16.880;2023-06-22T12:01:48;101050.50;;;31.75;40.21
24336;BME280;33098;52.400;16.880;2023-06-22T12:04:16;101046.63;;;32.00;39.68
24336;BME280;33098;52.400;16.880;2023-06-22T12:06:43;101047.59;;;32.21;38.93
24336;BME280;33098;52.400;16.880;2023-06-22T12:09:10;101045.91;;;32.48;39.13
24336;BME280;33098;52.400;16.880;2023-06-22T12:11:36;101044.67;;;32.76;38.97
24336;BME280;33098;52.400;16.880;2023-06-22T12:14:03;101042.50;;;32.96;38.68
24336;BME280;33098;52.400;16.880;2023-06-22T12:16:30;101039.02;;;33.10;38.50
24336;BME280;33098;52.400;16.880;2023-06-22T12:18:57;101037.33;;;33.25;38.52
24336;BME280;33098;52.400;16.880;2023-06-22T12:21:23;101037.42;;;33.43;38.45
24336;BME280;33098;52.400;16.880;2023-06-22T12:23:50;101035.88;;;33.65;38.25
24336;BME280;33098;52.400;16.880;2023-06-22T12:26:16;101035.12;;;33.82;37.23
24336;BME280;33098;52.400;16.880;2023-06-22T12:28:43;101031.50;;;33.97;37.35
24336;BME280;33098;52.400;16.880;2023-06-22T12:31:09;101029.14;;;34.22;37.37
24336;BME280;33098;52.400;16.880;2023-06-22T12:33:36;101025.74;;;34.50;37.12
24336;BME280;33098;52.400;16.880;2023-06-22T12:36:03;101026.40;;;34.67;36.80
24336;BME280;33098;52.400;16.880;2023-06-22T12:38:31;101028.19;;;34.76;36.37
24336;BME280;33098;52.400;16.880;2023-06-22T12:40:57;101023.66;;;34.84;36.13
24336;BME280;33098;52.400;16.880;2023-06-22T12:43:24;101018.84;;;35.07;36.07
24336;BME280;33098;52.400;16.880;2023-06-22T12:45:51;101013.06;;;35.39;35.99
24336;BME280;33098;52.400;16.880;2023-06-22T12:48:17;101014.27;;;35.65;35.19